Raritan, Illinois
Current Conditions -  °F | °C
As of 9:55 PM on Saturday 25 Oct 2014 (Local Time) from KMQB Reporting Station
Clear Clear  
Wind Chill: 12°   Ceiling: Unl
Heat Index: 12°   Visibility: 10mi
Dew Point:   Wind: 8mph
Humidity: 59%   Direction: 320°NW
Pressure: 30.06"   Gusts: NA
Location:  40.7°N, 90.83°W
Report Text: KMQB 260255Z AUTO 32007KT 10SM CLR 12/04 A3006 RMK AO2 T01220044
Loading
Personal Weather Stations






























Interactive Weather Map
Tropical Storm Tracking
New forecast layout! Learn more

10-Day Weather Forecast

Advertisements
Track Severe Weather on mobile